Time;durP1;ratioP1;P1;durP2;ratioP2;P2;SDS_P1;SDS_P2;PMS_P1;PMS_P2;Temp;Humidity;BMP_temperature;BMP_pressure;BME280_temperature;BME280_humidity;BME280_pressure;Samples;Min_cycle;Max_cycle;Signal;HPM_P1;HPM_P2
2022/01/30 00:00:36;;;;;;;;;;;13.90;96.90;;;;;;5013363;28;20028;-65
2022/01/30 00:03:02;;;;;;;;;;;13.80;96.90;;;;;;5013960;28;19932;-65
2022/01/30 00:05:28;;;;;;;;;;;14.00;96.90;;;;;;5012885;28;19925;-66
2022/01/30 00:07:54;;;;;;;;;;;13.80;96.90;;;;;;5013281;28;19972;-66
2022/01/30 00:10:20;;;;;;;;;;;;;;;;;;5013355;28;20008;-62
2022/01/30 00:13:05;;;;;;;;;;;13.90;96.90;;;;;;5013132;28;19925;-61
2022/01/30 00:15:44;;;;;;;;;;;14.20;97.00;;;;;;5027599;28;19924;-63
2022/01/30 00:20:41;;;;;;;;;;;13.90;96.90;;;;;;5113336;28;19924;-65
2022/01/30 00:23:16;;;;;;;;;;;13.80;96.90;;;;;;5115685;28;20285;-66
2022/01/30 00:25:53;;;;;;;;;;;;;;;;;;5115407;28;19927;-66
2022/01/30 00:28:21;;;;;;;;;;;14.00;96.90;;;;;;5114155;28;19924;-66
2022/01/30 00:30:47;;;;;;;;;;;13.90;96.80;;;;;;5114782;28;19931;-66
2022/01/30 00:33:13;;;;;;;;;;;14.00;96.80;;;;;;5115071;28;19923;-65
2022/01/30 00:35:39;;;;;;;;;;;13.80;96.80;;;;;;5113442;28;20015;-66
2022/01/30 00:38:11;;;;;;;;;;;14.20;96.80;;;;;;5114648;28;19966;-64
2022/01/30 00:40:37;;;;;;;;;;;13.90;96.70;;;;;;5114738;28;19924;-65
2022/01/30 00:43:03;;;;;;;;;;;14.10;96.70;;;;;;5115293;28;19968;-64
2022/01/30 00:45:29;;;;;;;;;;;14.10;96.70;;;;;;5109056;28;19924;-64
2022/01/30 00:47:55;;;;;;;;;;;14.20;96.70;;;;;;5101084;28;19947;-64
2022/01/30 00:50:20;;;;;;;;;;;14.10;96.70;;;;;;5114456;28;19923;-65
2022/01/30 00:52:52;;;;;;;;;;;13.90;96.70;;;;;;5114523;28;19969;-66
2022/01/30 00:55:18;;;;;;;;;;;14.00;96.70;;;;;;5115005;28;19951;-65
2022/01/30 00:57:44;;;;;;;;;;;;;;;;;;5101805;28;19920;-65
2022/01/30 01:00:10;;;;;;;;;;;13.90;96.70;;;;;;5101172;28;19924;-65
2022/01/30 01:02:35;;;;;;;;;;;14.00;96.70;;;;;;5103976;28;20281;-65
2022/01/30 01:05:05;;;;;;;;;;;13.80;96.60;;;;;;5094137;28;19928;-66
2022/01/30 01:07:32;;;;;;;;;;;14.00;96.60;;;;;;5107571;28;20014;-65
2022/01/30 01:10:06;;;;;;;;;;;13.80;96.40;;;;;;5112006;28;19963;-64
2022/01/30 01:23:37;;;;;;;;;;;14.20;96.60;;;;;;5114610;28;19924;-65
2022/01/30 01:26:03;;;;;;;;;;;13.90;96.60;;;;;;5114598;28;19927;-65
2022/01/30 01:28:28;;;;;;;;;;;13.80;96.60;;;;;;5114229;28;19967;-65
2022/01/30 01:30:54;;;;;;;;;;;13.90;96.60;;;;;;5113751;28;19924;-65
2022/01/30 01:33:21;;;;;;;;;;;13.90;96.60;;;;;;5114546;28;20034;-65
2022/01/30 01:35:46;;;;;;;;;;;13.80;96.60;;;;;;5114534;28;19931;-65
2022/01/30 01:38:14;;;;;;;;;;;13.80;96.60;;;;;;5114241;28;19924;-65
2022/01/30 01:40:40;;;;;;;;;;;14.00;96.60;;;;;;5111539;28;19923;-65
2022/01/30 01:43:06;;;;;;;;;;;13.90;96.50;;;;;;5093134;28;19925;-63
2022/01/30 01:45:38;;;;;;;;;;;14.00;96.50;;;;;;5106160;28;20295;-66
2022/01/30 01:48:10;;;;;;;;;;;13.80;96.40;;;;;;5098277;28;19931;-64
2022/01/30 01:50:44;;;;;;;;;;;13.80;96.50;;;;;;5097884;28;20003;-67
2022/01/30 01:53:10;;;;;;;;;;;14.00;96.50;;;;;;5112643;28;19930;-66
2022/01/30 01:55:36;;;;;;;;;;;13.90;96.40;;;;;;5118537;28;19926;-66
2022/01/30 01:58:02;;;;;;;;;;;14.00;96.40;;;;;;5118541;28;19924;-61
2022/01/30 02:00:28;;;;;;;;;;;14.00;96.40;;;;;;5118960;28;19927;-64
2022/01/30 02:02:55;;;;;;;;;;;14.10;96.40;;;;;;5117748;28;19923;-63
2022/01/30 02:05:23;;;;;;;;;;;13.70;96.30;;;;;;5117950;28;19924;-66
2022/01/30 02:10:49;;;;;;;;;;;13.90;96.30;;;;;;5113004;28;19924;-66
2022/01/30 02:13:49;;;;;;;;;;;13.90;96.20;;;;;;5116994;28;20403;-65
2022/01/30 02:26:48;;;;;;;;;;;13.90;96.20;;;;;;5117972;28;20258;-66
2022/01/30 02:29:14;;;;;;;;;;;13.90;96.20;;;;;;5117604;28;19931;-63
2022/01/30 02:31:41;;;;;;;;;;;13.80;96.30;;;;;;5118408;28;19924;-64
2022/01/30 02:34:07;;;;;;;;;;;;;;;;;;5117376;28;19923;-66
2022/01/30 02:36:32;;;;;;;;;;;14.00;96.20;;;;;;5117278;28;20370;-63
2022/01/30 02:39:00;;;;;;;;;;;13.70;96.20;;;;;;5118076;28;19924;-65
2022/01/30 02:41:26;;;;;;;;;;;13.60;96.10;;;;;;5117132;27;19923;-65
2022/01/30 02:44:10;;;;;;;;;;;13.90;96.20;;;;;;5116881;28;19924;-65
2022/01/30 02:46:41;;;;;;;;;;;13.90;96.20;;;;;;5102196;28;20327;-65
2022/01/30 02:51:48;;;;;;;;;;;13.70;96.10;;;;;;5098779;28;19947;-64
2022/01/30 02:54:14;;;;;;;;;;;14.10;96.10;;;;;;5116935;28;19923;-66
2022/01/30 02:56:40;;;;;;;;;;;13.80;96.10;;;;;;5116098;28;20291;-65
2022/01/30 02:59:06;;;;;;;;;;;13.90;96.10;;;;;;5097341;28;19931;-65
2022/01/30 03:01:32;;;;;;;;;;;13.70;96.00;;;;;;5096574;28;19920;-66
2022/01/30 03:03:58;;;;;;;;;;;13.90;96.00;;;;;;5096811;28;20393;-65
2022/01/30 03:06:23;;;;;;;;;;;13.90;96.10;;;;;;5096359;28;20373;-65
2022/01/30 03:08:49;;;;;;;;;;;13.70;95.90;;;;;;5110554;28;20022;-65
2022/01/30 03:11:14;;;;;;;;;;;13.80;96.00;;;;;;5116699;28;19923;-63
2022/01/30 03:13:40;;;;;;;;;;;13.80;96.00;;;;;;5115860;28;20003;-63
2022/01/30 03:16:06;;;;;;;;;;;13.80;96.00;;;;;;5116342;28;19932;-63
2022/01/30 03:18:31;;;;;;;;;;;14.00;96.00;;;;;;5111953;28;20019;-63
2022/01/30 03:20:57;;;;;;;;;;;13.90;96.00;;;;;;5105247;28;19928;-64
2022/01/30 03:23:23;;;;;;;;;;;13.90;95.90;;;;;;5106528;28;19950;-65
2022/01/30 03:25:54;;;;;;;;;;;14.00;96.00;;;;;;5107484;28;20464;-66
2022/01/30 03:28:20;;;;;;;;;;;13.80;95.90;;;;;;5116758;27;19923;-66
2022/01/30 03:30:47;;;;;;;;;;;13.80;95.90;;;;;;5116372;28;19927;-66
2022/01/30 03:33:13;;;;;;;;;;;13.80;95.80;;;;;;5116430;28;19923;-65
2022/01/30 03:35:40;;;;;;;;;;;13.80;95.80;;;;;;5116616;28;19947;-65
2022/01/30 03:38:05;;;;;;;;;;;13.80;95.80;;;;;;5116546;28;20270;-66
2022/01/30 03:40:31;;;;;;;;;;;13.80;95.80;;;;;;5115715;28;19931;-63
2022/01/30 03:42:57;;;;;;;;;;;14.00;95.80;;;;;;5115215;28;19951;-63
2022/01/30 03:45:22;;;;;;;;;;;13.80;95.80;;;;;;5116008;28;20301;-65
2022/01/30 03:47:51;;;;;;;;;;;13.60;95.70;;;;;;5116082;28;19977;-63
2022/01/30 03:50:16;;;;;;;;;;;13.80;95.70;;;;;;5115886;28;19920;-65
2022/01/30 03:52:42;;;;;;;;;;;13.70;95.70;;;;;;5116155;28;20014;-66
2022/01/30 03:55:08;;;;;;;;;;;13.90;95.70;;;;;;5116131;28;20373;-66
2022/01/30 03:57:33;;;;;;;;;;;13.90;95.70;;;;;;5116149;28;20427;-65
2022/01/30 03:59:59;;;;;;;;;;;13.80;95.60;;;;;;5115663;28;20456;-66
2022/01/30 04:02:25;;;;;;;;;;;13.90;95.60;;;;;;5115612;28;19920;-65
2022/01/30 04:04:50;;;;;;;;;;;13.70;95.60;;;;;;5115929;28;19928;-65
2022/01/30 04:07:16;;;;;;;;;;;13.80;95.60;;;;;;5115681;28;19931;-65
2022/01/30 04:09:42;;;;;;;;;;;13.70;95.60;;;;;;5115679;28;19920;-63
2022/01/30 04:12:08;;;;;;;;;;;13.80;95.60;;;;;;5115269;28;19935;-63
2022/01/30 04:14:34;;;;;;;;;;;13.80;95.60;;;;;;5115872;28;19920;-62
2022/01/30 04:16:59;;;;;;;;;;;13.70;95.50;;;;;;5115508;28;20404;-63
2022/01/30 04:19:25;;;;;;;;;;;13.80;95.60;;;;;;5115752;28;19928;-63
2022/01/30 04:21:51;;;;;;;;;;;13.60;95.50;;;;;;5103234;28;19923;-66
2022/01/30 04:24:16;;;;;;;;;;;14.00;95.60;;;;;;5100135;28;19928;-65
2022/01/30 04:26:44;;;;;;;;;;;14.00;95.60;;;;;;5105645;28;19949;-65
2022/01/30 04:29:10;;;;;;;;;;;13.70;95.50;;;;;;5112447;28;20390;-65
2022/01/30 04:31:35;;;;;;;;;;;13.80;95.60;;;;;;5109922;28;19938;-66
2022/01/30 04:34:02;;;;;;;;;;;;;;;;;;5114037;28;19924;-64
2022/01/30 04:36:38;;;;;;;;;;;13.80;95.60;;;;;;5114745;28;19935;-64
2022/01/30 04:53:06;;;;;;;;;;;13.80;95.60;;;;;;5070913;28;19928;-66
2022/01/30 05:08:13;;;;;;;;;;;;;;;;;;5070920;28;20020;-63
2022/01/30 05:10:39;;;;;;;;;;;13.80;95.60;;;;;;5052873;28;19921;-63
2022/01/30 05:13:09;;;;;;;;;;;14.00;95.70;;;;;;5057400;28;19931;-63
2022/01/30 05:15:35;;;;;;;;;;;13.80;95.50;;;;;;5070796;28;19924;-64
2022/01/30 05:18:01;;;;;;;;;;;13.90;95.50;;;;;;5071393;28;19958;-63
2022/01/30 05:20:26;;;;;;;;;;;13.70;95.40;;;;;;5070408;28;19935;-63
2022/01/30 05:22:52;;;;;;;;;;;13.90;95.50;;;;;;5112466;28;20288;-65
2022/01/30 05:25:18;;;;;;;;;;;13.90;95.40;;;;;;5112714;28;19963;-65
2022/01/30 05:27:44;;;;;;;;;;;13.70;95.40;;;;;;5112202;28;19928;-66
2022/01/30 05:30:10;;;;;;;;;;;13.70;95.40;;;;;;5112679;28;19985;-66
2022/01/30 05:32:35;;;;;;;;;;;13.80;95.40;;;;;;5111353;28;20023;-65
2022/01/30 05:35:01;;;;;;;;;;;13.80;95.40;;;;;;5111802;28;20467;-65
2022/01/30 05:37:27;;;;;;;;;;;13.80;95.40;;;;;;5111803;28;20018;-65
2022/01/30 05:39:53;;;;;;;;;;;13.90;95.50;;;;;;5112659;28;19974;-66
2022/01/30 05:42:19;;;;;;;;;;;13.90;95.50;;;;;;5111789;28;19931;-66
2022/01/30 05:44:54;;;;;;;;;;;13.60;95.20;;;;;;5113252;28;19931;-66
2022/01/30 05:47:26;;;;;;;;;;;13.60;95.40;;;;;;5109811;28;20426;-66
2022/01/30 05:49:52;;;;;;;;;;;13.40;95.30;;;;;;5101764;28;19986;-64
2022/01/30 05:52:17;;;;;;;;;;;13.50;95.40;;;;;;5095262;28;19924;-65
2022/01/30 05:54:43;;;;;;;;;;;13.70;95.40;;;;;;5106490;28;19969;-66
2022/01/30 05:57:08;;;;;;;;;;;13.70;95.40;;;;;;5093980;28;19924;-65
2022/01/30 05:59:34;;;;;;;;;;;13.50;95.20;;;;;;5105866;28;19924;-65
2022/01/30 06:02:00;;;;;;;;;;;13.80;95.30;;;;;;5114281;28;19924;-65
2022/01/30 06:04:25;;;;;;;;;;;13.50;95.30;;;;;;5113979;28;20400;-65
2022/01/30 06:06:53;;;;;;;;;;;13.70;95.30;;;;;;5112990;28;20007;-65
2022/01/30 06:09:19;;;;;;;;;;;;;;;;;;5113489;28;19924;-61
2022/01/30 06:11:47;;;;;;;;;;;13.70;95.30;;;;;;5106063;28;19924;-63
2022/01/30 06:14:14;;;;;;;;;;;13.50;95.20;;;;;;5093833;28;19927;-63
2022/01/30 06:16:40;;;;;;;;;;;13.80;95.20;;;;;;5103353;28;19923;-64
2022/01/30 06:19:06;;;;;;;;;;;13.70;95.20;;;;;;5114709;28;19924;-65
2022/01/30 06:21:31;;;;;;;;;;;13.90;95.20;;;;;;5113252;28;19930;-62
2022/01/30 06:23:57;;;;;;;;;;;13.40;95.10;;;;;;5112861;28;19931;-65
2022/01/30 06:26:23;;;;;;;;;;;13.80;95.30;;;;;;5114057;28;19930;-65
2022/01/30 06:28:48;;;;;;;;;;;13.60;95.20;;;;;;5114044;28;19924;-65
2022/01/30 06:31:15;;;;;;;;;;;13.70;95.10;;;;;;5113761;28;20280;-65
2022/01/30 06:33:41;;;;;;;;;;;13.60;95.20;;;;;;5115434;28;19924;-62
2022/01/30 06:36:06;;;;;;;;;;;13.60;95.10;;;;;;5116971;27;19973;-63
2022/01/30 06:38:32;;;;;;;;;;;;;;;;;;5116898;28;19982;-62
2022/01/30 06:40:58;;;;;;;;;;;13.70;95.30;;;;;;5116147;28;20011;-65
2022/01/30 06:43:24;;;;;;;;;;;13.70;95.20;;;;;;5116953;28;20068;-66
2022/01/30 06:45:50;;;;;;;;;;;13.50;95.30;;;;;;5116321;28;19931;-65
2022/01/30 06:48:17;;;;;;;;;;;13.80;95.30;;;;;;5116868;28;20365;-65
2022/01/30 06:50:42;;;;;;;;;;;13.60;95.20;;;;;;5116361;28;19924;-62
2022/01/30 06:53:08;;;;;;;;;;;13.60;95.20;;;;;;5116594;28;20377;-64
2022/01/30 06:55:34;;;;;;;;;;;13.60;95.20;;;;;;5112166;28;20419;-64
2022/01/30 06:58:00;;;;;;;;;;;13.70;95.30;;;;;;5109319;28;20335;-65
2022/01/30 07:00:25;;;;;;;;;;;13.50;95.30;;;;;;5116153;28;19924;-61
2022/01/30 07:02:51;;;;;;;;;;;13.60;95.30;;;;;;5108453;28;19963;-64
2022/01/30 07:05:16;;;;;;;;;;;13.80;95.50;;;;;;5116115;28;19927;-62
2022/01/30 07:07:42;;;;;;;;;;;13.60;95.30;;;;;;5115832;28;19930;-62
2022/01/30 07:10:08;;;;;;;;;;;13.70;95.40;;;;;;5116199;28;19963;-65
2022/01/30 07:12:34;;;;;;;;;;;13.70;95.40;;;;;;5116368;28;20284;-65
2022/01/30 07:15:00;;;;;;;;;;;;;;;;;;5110078;28;20006;-63
2022/01/30 07:17:25;;;;;;;;;;;13.80;95.40;;;;;;5113819;28;19924;-63
2022/01/30 07:19:51;;;;;;;;;;;13.60;95.30;;;;;;5111495;28;20369;-60
2022/01/30 07:22:17;;;;;;;;;;;13.50;95.30;;;;;;5116121;28;19972;-65
2022/01/30 07:24:43;;;;;;;;;;;13.90;95.40;;;;;;5114558;28;19967;-66
2022/01/30 07:27:09;;;;;;;;;;;13.80;95.40;;;;;;5115977;28;20297;-64
2022/01/30 07:29:35;;;;;;;;;;;;;;;;;;5115353;28;19927;-62
2022/01/30 07:32:01;;;;;;;;;;;13.60;95.30;;;;;;5115267;28;19924;-63
2022/01/30 07:34:26;;;;;;;;;;;13.50;95.30;;;;;;5107366;28;20389;-63
2022/01/30 07:36:56;;;;;;;;;;;13.40;95.20;;;;;;5111906;28;19977;-64
2022/01/30 07:39:25;;;;;;;;;;;13.40;95.20;;;;;;5114905;28;19924;-65
2022/01/30 07:41:50;;;;;;;;;;;13.70;95.30;;;;;;5112995;28;20334;-66
2022/01/30 07:44:16;;;;;;;;;;;13.70;95.30;;;;;;5114278;28;19932;-66
2022/01/30 07:46:42;;;;;;;;;;;13.70;95.20;;;;;;5112401;28;20288;-66
2022/01/30 07:49:07;;;;;;;;;;;13.60;95.20;;;;;;5110025;28;19941;-65
2022/01/30 07:51:33;;;;;;;;;;;13.50;95.30;;;;;;5114542;28;19924;-64
2022/01/30 07:53:59;;;;;;;;;;;;;;;;;;5109364;28;20285;-64
2022/01/30 07:56:25;;;;;;;;;;;;;;;;;;5105218;28;20438;-63
2022/01/30 07:58:50;;;;;;;;;;;13.70;95.20;;;;;;5113554;28;19966;-63
2022/01/30 08:01:16;;;;;;;;;;;;;;;;;;5100348;28;19931;-63
2022/01/30 08:03:42;;;;;;;;;;;13.60;95.20;;;;;;5112026;28;19924;-61
2022/01/30 08:06:08;;;;;;;;;;;13.80;95.20;;;;;;5109711;28;19924;-64
2022/01/30 08:08:33;;;;;;;;;;;13.70;95.20;;;;;;5114058;28;19930;-65
2022/01/30 08:10:59;;;;;;;;;;;13.70;95.20;;;;;;5115280;28;19938;-63
2022/01/30 08:13:25;;;;;;;;;;;13.70;95.10;;;;;;5110245;28;20002;-63
2022/01/30 08:15:50;;;;;;;;;;;13.70;95.20;;;;;;5106995;28;19986;-62
2022/01/30 08:18:16;;;;;;;;;;;14.00;95.20;;;;;;5115155;28;20296;-62
2022/01/30 08:20:42;;;;;;;;;;;13.80;95.10;;;;;;5106263;28;19931;-62
2022/01/30 08:23:14;;;;;;;;;;;13.50;95.00;;;;;;5113351;28;19927;-60
2022/01/30 08:25:40;;;;;;;;;;;;;;;;;;5112916;28;19928;-61
2022/01/30 08:28:05;;;;;;;;;;;14.10;95.20;;;;;;5129165;27;19932;-61
2022/01/30 08:30:31;;;;;;;;;;;13.70;94.90;;;;;;5111597;28;20334;-63
2022/01/30 08:33:00;;;;;;;;;;;13.80;95.10;;;;;;5106154;28;19967;-60
2022/01/30 08:35:26;;;;;;;;;;;;;;;;;;5112895;28;19924;-64
2022/01/30 08:37:52;;;;;;;;;;;;;;;;;;5107789;28;19920;-62
2022/01/30 08:40:18;;;;;;;;;;;13.70;95.00;;;;;;5113889;28;20289;-64
2022/01/30 08:42:44;;;;;;;;;;;;;;;;;;5114513;28;20318;-63
2022/01/30 08:45:10;;;;;;;;;;;13.60;95.00;;;;;;5114622;28;19931;-65
2022/01/30 08:47:36;;;;;;;;;;;;;;;;;;5113986;28;20300;-67
2022/01/30 08:50:06;;;;;;;;;;;13.80;94.90;;;;;;5114379;28;19927;-60
2022/01/30 08:52:32;;;;;;;;;;;13.70;94.90;;;;;;5114443;28;20426;-61
2022/01/30 08:54:58;;;;;;;;;;;13.90;94.90;;;;;;5107573;28;19935;-60
2022/01/30 08:57:24;;;;;;;;;;;14.00;94.80;;;;;;5114115;28;20346;-62
2022/01/30 08:59:51;;;;;;;;;;;;;;;;;;5113702;28;19924;-65
2022/01/30 09:02:18;;;;;;;;;;;14.00;94.70;;;;;;5114152;28;19946;-65
2022/01/30 09:04:43;;;;;;;;;;;13.90;94.60;;;;;;5104055;28;19930;-62
2022/01/30 09:07:09;;;;;;;;;;;14.20;94.60;;;;;;5108408;28;20288;-65
2022/01/30 09:09:34;;;;;;;;;;;14.30;94.60;;;;;;5111281;28;20385;-61
2022/01/30 09:12:02;;;;;;;;;;;13.80;94.40;;;;;;5113570;28;19924;-66
2022/01/30 09:14:29;;;;;;;;;;;14.30;94.50;;;;;;5113901;28;19962;-66
2022/01/30 09:16:55;;;;;;;;;;;14.10;94.40;;;;;;5113089;28;19928;-66
2022/01/30 09:19:21;;;;;;;;;;;;;;;;;;5114017;28;19984;-66
2022/01/30 09:21:46;;;;;;;;;;;14.00;94.40;;;;;;5113256;28;20389;-65
2022/01/30 09:24:15;;;;;;;;;;;13.90;94.30;;;;;;5113172;28;20411;-65
2022/01/30 09:26:41;;;;;;;;;;;14.30;94.40;;;;;;5111715;28;19924;-66
2022/01/30 09:29:07;;;;;;;;;;;14.30;94.30;;;;;;5112801;28;19980;-66
2022/01/30 09:31:32;;;;;;;;;;;14.10;94.20;;;;;;5113440;28;19920;-67
2022/01/30 09:33:58;;;;;;;;;;;14.20;94.20;;;;;;5113376;28;19924;-66
2022/01/30 09:36:24;;;;;;;;;;;14.30;94.20;;;;;;5113742;28;19946;-65
2022/01/30 09:38:50;;;;;;;;;;;;;;;;;;5111826;28;19920;-63
2022/01/30 09:41:16;;;;;;;;;;;14.20;94.20;;;;;;5112911;28;20014;-63
2022/01/30 09:43:42;;;;;;;;;;;14.10;94.10;;;;;;5113592;28;20010;-65
2022/01/30 09:46:07;;;;;;;;;;;14.30;94.10;;;;;;5112950;28;19932;-63
2022/01/30 09:48:36;;;;;;;;;;;14.20;94.10;;;;;;5111986;28;19924;-61
2022/01/30 09:51:03;;;;;;;;;;;14.30;94.10;;;;;;5113162;28;20292;-66
2022/01/30 09:53:28;;;;;;;;;;;14.30;94.10;;;;;;5113506;28;19967;-65
2022/01/30 09:55:54;;;;;;;;;;;;;;;;;;5113228;28;19966;-65
2022/01/30 09:58:20;;;;;;;;;;;14.30;94.10;;;;;;5112633;28;20030;-66
2022/01/30 10:00:46;;;;;;;;;;;14.20;94.00;;;;;;5112242;28;19960;-62
2022/01/30 10:03:12;;;;;;;;;;;;;;;;;;5113425;28;19920;-64
2022/01/30 10:05:39;;;;;;;;;;;14.30;94.00;;;;;;5113070;28;19923;-66
2022/01/30 10:08:05;;;;;;;;;;;;;;;;;;5116929;28;19927;-64
2022/01/30 10:10:31;;;;;;;;;;;14.40;94.00;;;;;;5116223;28;19939;-64
2022/01/30 10:12:57;;;;;;;;;;;;;;;;;;5116905;28;19924;-65
2022/01/30 10:15:23;;;;;;;;;;;;;;;;;;5117056;28;19923;-65
2022/01/30 10:17:49;;;;;;;;;;;14.20;94.00;;;;;;5117468;28;19924;-65
2022/01/30 10:20:15;;;;;;;;;;;;;;;;;;5115956;27;19981;-66
2022/01/30 10:22:53;;;;;;;;;;;14.30;94.00;;;;;;5117192;28;19924;-66
2022/01/30 10:25:23;;;;;;;;;;;14.30;93.90;;;;;;5116411;28;19924;-64
2022/01/30 10:27:50;;;;;;;;;;;14.40;94.00;;;;;;5117382;28;20365;-64
2022/01/30 10:30:19;;;;;;;;;;;14.50;94.00;;;;;;5115748;28;20278;-63
2022/01/30 10:32:52;;;;;;;;;;;14.60;93.90;;;;;;5115360;28;20265;-63
2022/01/30 10:35:18;;;;;;;;;;;14.50;94.00;;;;;;5116634;28;20010;-62
2022/01/30 10:37:46;;;;;;;;;;;;;;;;;;5111923;28;19967;-65
2022/01/30 10:40:15;;;;;;;;;;;;;;;;;;5114065;28;19924;-63
2022/01/30 10:42:45;;;;;;;;;;;14.70;94.00;;;;;;5116859;28;20416;-65
2022/01/30 10:45:11;;;;;;;;;;;;;;;;;;5116408;28;19924;-61
2022/01/30 10:47:37;;;;;;;;;;;;;;;;;;5108633;28;19934;-65
2022/01/30 10:50:10;;;;;;;;;;;14.70;93.90;;;;;;5111874;28;19974;-65
2022/01/30 10:52:56;;;;;;;;;;;14.80;94.00;;;;;;5110153;28;19924;-64
2022/01/30 10:55:31;;;;;;;;;;;14.60;94.00;;;;;;5105174;28;20403;-64
2022/01/30 10:58:01;;;;;;;;;;;14.60;93.80;;;;;;5104329;28;19978;-65
2022/01/30 11:00:46;;;;;;;;;;;14.80;93.80;;;;;;5101975;28;20437;-66
2022/01/30 11:03:31;;;;;;;;;;;14.60;93.70;;;;;;5097919;28;20062;-66
2022/01/30 11:05:58;;;;;;;;;;;14.60;93.70;;;;;;5116322;28;20320;-65
2022/01/30 11:08:24;;;;;;;;;;;14.90;93.80;;;;;;5102844;28;19924;-66
2022/01/30 11:17:03;;;;;;;;;;;;;;;;;;5053518;28;19925;-65
2022/01/30 11:19:29;;;;;;;;;;;14.90;93.60;;;;;;5052850;28;19920;-65
2022/01/30 11:21:58;;;;;;;;;;;14.90;93.60;;;;;;5053707;28;19925;-66
2022/01/30 11:24:24;;;;;;;;;;;15.30;93.70;;;;;;5053914;28;19928;-65
2022/01/30 11:26:50;;;;;;;;;;;15.10;93.50;;;;;;5053166;28;20386;-66
2022/01/30 11:29:16;;;;;;;;;;;15.00;93.50;;;;;;5053878;28;19968;-66
2022/01/30 11:31:41;;;;;;;;;;;15.20;93.50;;;;;;5053344;28;19925;-65
2022/01/30 11:34:07;;;;;;;;;;;15.30;93.40;;;;;;5053778;28;19936;-61
2022/01/30 11:36:33;;;;;;;;;;;15.00;93.30;;;;;;5053259;28;19925;-60
2022/01/30 11:39:01;;;;;;;;;;;14.90;93.20;;;;;;5037163;28;20317;-61
2022/01/30 11:41:26;;;;;;;;;;;15.20;93.20;;;;;;5036351;28;19929;-61
2022/01/30 11:44:10;;;;;;;;;;;15.40;93.20;;;;;;5053257;28;19996;-61
2022/01/30 11:46:36;;;;;;;;;;;15.20;93.10;;;;;;5053484;28;20317;-62
2022/01/30 11:49:13;;;;;;;;;;;15.30;93.10;;;;;;5052645;28;19925;-62
2022/01/30 11:51:52;;;;;;;;;;;15.30;93.10;;;;;;5109210;28;20262;-63
2022/01/30 11:54:36;;;;;;;;;;;15.20;93.00;;;;;;5116300;28;20387;-62
2022/01/30 11:57:27;;;;;;;;;;;15.30;93.00;;;;;;5115781;28;19934;-61
2022/01/30 11:59:53;;;;;;;;;;;15.10;92.90;;;;;;5115960;28;20018;-60
2022/01/30 12:02:22;;;;;;;;;;;15.40;92.90;;;;;;5115436;28;19931;-65
2022/01/30 12:04:58;;;;;;;;;;;15.60;92.90;;;;;;5105916;28;19924;-66
2022/01/30 12:07:33;;;;;;;;;;;15.20;92.70;;;;;;5115802;28;19930;-65
2022/01/30 12:10:17;;;;;;;;;;;15.60;92.80;;;;;;5109302;28;19923;-66
2022/01/30 12:12:50;;;;;;;;;;;15.30;92.70;;;;;;5115174;28;19969;-66
2022/01/30 12:15:15;;;;;;;;;;;;;;;;;;5110541;28;19965;-66
2022/01/30 12:17:42;;;;;;;;;;;;;;;;;;5108177;28;19923;-66
2022/01/30 12:20:08;;;;;;;;;;;15.20;92.90;;;;;;5115507;28;19927;-66
2022/01/30 12:22:34;;;;;;;;;;;15.30;92.90;;;;;;5115503;28;19924;-66
2022/01/30 12:25:18;;;;;;;;;;;15.20;93.00;;;;;;5114480;28;19968;-65
2022/01/30 12:27:47;;;;;;;;;;;15.40;93.00;;;;;;5115266;28;20014;-66
2022/01/30 12:30:50;;;;;;;;;;;15.40;92.90;;;;;;5113043;28;20377;-65
2022/01/30 12:33:35;;;;;;;;;;;15.20;92.80;;;;;;5072611;28;20015;-65
2022/01/30 12:36:01;;;;;;;;;;;15.30;92.80;;;;;;5072077;28;20306;-66
2022/01/30 12:38:33;;;;;;;;;;;15.20;92.80;;;;;;5072169;28;20340;-66
2022/01/30 12:40:59;;;;;;;;;;;15.40;92.80;;;;;;5071580;28;20003;-66
2022/01/30 12:43:29;;;;;;;;;;;15.40;92.70;;;;;;5071800;28;19964;-65
2022/01/30 12:46:07;;;;;;;;;;;15.20;92.60;;;;;;5071308;28;19924;-66
2022/01/30 12:48:33;;;;;;;;;;;15.20;92.60;;;;;;5071889;28;19928;-65
2022/01/30 12:51:03;;;;;;;;;;;15.50;92.80;;;;;;5072183;28;19921;-66
2022/01/30 12:53:30;;;;;;;;;;;15.20;92.80;;;;;;5055574;28;19924;-66
2022/01/30 12:55:56;;;;;;;;;;;15.30;92.80;;;;;;5071681;28;19947;-63
2022/01/30 12:58:22;;;;;;;;;;;15.40;93.10;;;;;;5055524;28;19924;-64
2022/01/30 13:01:03;;;;;;;;;;;15.20;93.10;;;;;;5071317;28;19927;-66
2022/01/30 13:03:29;;;;;;;;;;;15.40;93.00;;;;;;5071312;28;20331;-66
2022/01/30 13:05:55;;;;;;;;;;;15.40;92.60;;;;;;5071572;28;19928;-66
2022/01/30 13:08:21;;;;;;;;;;;15.20;92.20;;;;;;5111481;28;19924;-63
2022/01/30 13:10:47;;;;;;;;;;;;;;;;;;5106511;28;19932;-66
2022/01/30 13:13:12;;;;;;;;;;;14.90;91.50;;;;;;5112568;28;20389;-66
2022/01/30 13:15:39;;;;;;;;;;;15.20;91.70;;;;;;5113164;28;20024;-62
2022/01/30 13:18:04;;;;;;;;;;;15.20;91.60;;;;;;5112231;28;19927;-62
2022/01/30 13:20:31;;;;;;;;;;;;;;;;;;5111361;28;19924;-61
2022/01/30 13:22:56;;;;;;;;;;;15.10;91.50;;;;;;5102193;28;20400;-66
2022/01/30 13:25:22;;;;;;;;;;;;;;;;;;5090540;28;19923;-65
2022/01/30 13:27:48;;;;;;;;;;;;;;;;;;5112406;28;20003;-66
2022/01/30 13:30:28;;;;;;;;;;;15.00;91.10;;;;;;5097352;28;20018;-66
2022/01/30 13:32:54;;;;;;;;;;;14.80;91.10;;;;;;5093949;28;20377;-65
2022/01/30 13:35:23;;;;;;;;;;;14.90;91.20;;;;;;5093848;28;20015;-65
2022/01/30 13:37:49;;;;;;;;;;;14.90;90.90;;;;;;5096544;28;19928;-62
2022/01/30 13:42:56;;;;;;;;;;;15.30;90.80;;;;;;5110311;28;19931;-64
2022/01/30 13:48:07;;;;;;;;;;;15.10;90.40;;;;;;5096370;28;19924;-64
2022/01/30 13:50:34;;;;;;;;;;;;;;;;;;5113713;28;19920;-65
2022/01/30 13:53:01;;;;;;;;;;;15.10;90.70;;;;;;5114054;28;19923;-61
2022/01/30 13:55:27;;;;;;;;;;;15.20;90.80;;;;;;5107980;28;19924;-61
2022/01/30 13:57:57;;;;;;;;;;;15.40;91.00;;;;;;5097893;28;19920;-61
2022/01/30 14:00:23;;;;;;;;;;;15.40;91.10;;;;;;5110914;28;19924;-65
2022/01/30 14:02:52;;;;;;;;;;;15.50;91.00;;;;;;5114321;28;19920;-66
2022/01/30 14:05:28;;;;;;;;;;;15.60;91.00;;;;;;5112289;28;19932;-65
2022/01/30 14:07:54;;;;;;;;;;;15.70;91.10;;;;;;5100895;28;19931;-64
2022/01/30 14:10:22;;;;;;;;;;;15.50;91.00;;;;;;5112164;28;19924;-66
2022/01/30 14:12:49;;;;;;;;;;;15.60;91.10;;;;;;5113638;28;20014;-66
2022/01/30 14:15:15;;;;;;;;;;;;;;;;;;5113398;28;20053;-66
2022/01/30 14:17:42;;;;;;;;;;;15.50;91.10;;;;;;5112766;28;19924;-66
2022/01/30 14:20:11;;;;;;;;;;;15.70;91.20;;;;;;5114155;28;19928;-66
2022/01/30 14:22:36;;;;;;;;;;;15.80;91.20;;;;;;5111595;28;19934;-65
2022/01/30 14:25:06;;;;;;;;;;;15.70;91.10;;;;;;5111885;28;20007;-66
2022/01/30 14:27:36;;;;;;;;;;;15.70;91.30;;;;;;5109496;28;20400;-65
2022/01/30 14:30:04;;;;;;;;;;;15.80;91.40;;;;;;5106342;28;19928;-65
2022/01/30 14:32:33;;;;;;;;;;;15.80;91.40;;;;;;5111612;28;20010;-64
2022/01/30 14:34:59;;;;;;;;;;;15.60;91.40;;;;;;5112469;28;19923;-66
2022/01/30 14:37:25;;;;;;;;;;;15.60;91.50;;;;;;5112924;28;19996;-66
2022/01/30 14:39:54;;;;;;;;;;;15.60;91.50;;;;;;5113133;28;20030;-66
2022/01/30 14:42:20;;;;;;;;;;;15.80;91.50;;;;;;5113613;28;20027;-66
2022/01/30 14:44:46;;;;;;;;;;;15.60;91.60;;;;;;5113327;28;20014;-63
2022/01/30 14:47:12;;;;;;;;;;;15.60;91.60;;;;;;5112934;28;20419;-60
2022/01/30 14:49:38;;;;;;;;;;;15.70;91.60;;;;;;5113291;28;19924;-61
2022/01/30 14:52:04;;;;;;;;;;;15.90;91.70;;;;;;5114164;28;19976;-61
2022/01/30 14:54:30;;;;;;;;;;;15.50;91.60;;;;;;5108150;28;19984;-66
2022/01/30 14:56:55;;;;;;;;;;;15.50;91.60;;;;;;5116762;28;19931;-60
2022/01/30 14:59:21;;;;;;;;;;;15.40;91.60;;;;;;5116919;28;19935;-60
2022/01/30 15:01:47;;;;;;;;;;;15.60;91.70;;;;;;5117372;27;19923;-60
2022/01/30 15:04:12;;;;;;;;;;;15.60;91.80;;;;;;5115711;28;19924;-66
2022/01/30 15:06:38;;;;;;;;;;;15.40;91.80;;;;;;5116465;28;19924;-61
2022/01/30 15:09:04;;;;;;;;;;;15.70;91.90;;;;;;5117184;28;19924;-60
2022/01/30 15:11:30;;;;;;;;;;;15.40;91.80;;;;;;5116236;28;19924;-60
2022/01/30 15:13:56;;;;;;;;;;;15.40;91.90;;;;;;5117112;28;20373;-63
2022/01/30 15:19:09;;;;;;;;;;;15.90;92.10;;;;;;5116722;28;19928;-60
2022/01/30 15:21:34;;;;;;;;;;;15.50;92.10;;;;;;5115633;27;19949;-60
2022/01/30 15:24:00;;;;;;;;;;;15.50;92.10;;;;;;5115397;28;19924;-59
2022/01/30 15:26:26;;;;;;;;;;;15.60;92.20;;;;;;5116010;28;19935;-66
2022/01/30 15:28:52;;;;;;;;;;;15.40;92.20;;;;;;5116509;28;20010;-64
2022/01/30 15:31:18;;;;;;;;;;;15.80;92.20;;;;;;5115734;27;20006;-62
2022/01/30 15:33:44;;;;;;;;;;;15.50;92.20;;;;;;5115894;28;19924;-63
2022/01/30 15:36:10;;;;;;;;;;;15.90;92.20;;;;;;5115079;28;19973;-64
2022/01/30 15:38:35;;;;;;;;;;;15.80;92.30;;;;;;5116043;28;20014;-59
2022/01/30 15:41:01;;;;;;;;;;;16.00;92.30;;;;;;5115143;28;20381;-59
2022/01/30 15:43:27;;;;;;;;;;;16.10;92.20;;;;;;5114168;28;19924;-62